createdAt,value
2019-03-09T00:00:59.365Z,0
2019-03-09T00:01:59.377Z,0
2019-03-09T00:02:59.653Z,0
2019-03-09T00:03:59.504Z,0
2019-03-09T00:04:59.422Z,0
2019-03-09T00:05:59.716Z,0
2019-03-09T00:06:59.736Z,0
2019-03-09T00:08:00.028Z,0
2019-03-09T00:08:59.249Z,0
2019-03-09T00:09:59.528Z,0
2019-03-09T00:11:00.089Z,0
2019-03-09T00:11:59.851Z,0
2019-03-09T00:13:00.009Z,0
2019-03-09T00:13:59.881Z,0
2019-03-09T00:14:59.892Z,0
2019-03-09T00:15:59.645Z,0
2019-03-09T00:16:59.934Z,0
2019-03-09T00:17:59.687Z,0
2019-03-09T00:18:59.705Z,0
2019-03-09T00:19:59.994Z,0
2019-03-09T00:21:00.320Z,0
2019-03-09T00:21:59.770Z,0
2019-03-09T00:23:00.045Z,0
2019-03-09T00:23:59.547Z,0
2019-03-09T00:24:59.832Z,0
2019-03-09T00:26:01.986Z,0
2019-03-09T00:27:00.131Z,0
2019-03-09T00:28:00.150Z,0
2019-03-09T00:28:59.901Z,0
2019-03-09T00:30:00.472Z,0
2019-03-09T00:31:00.195Z,0
2019-03-09T00:31:59.711Z,0
2019-03-09T00:33:00.245Z,0
2019-03-09T00:34:00.002Z,0
2019-03-09T00:34:59.905Z,0
2019-03-09T00:36:00.048Z,0
2019-03-09T00:37:00.061Z,0
2019-03-09T00:38:00.554Z,0
2019-03-09T00:39:00.297Z,0
2019-03-09T00:40:00.647Z,0
2019-03-09T00:41:00.131Z,0
2019-03-09T00:42:00.697Z,0
2019-03-09T00:43:00.713Z,0
2019-03-09T00:43:59.936Z,0
2019-03-09T00:45:00.338Z,0
2019-03-09T00:46:00.495Z,0
2019-03-09T00:47:01.141Z,0
2019-03-09T00:48:00.534Z,0
2019-03-09T00:49:00.840Z,0
2019-03-09T00:50:00.316Z,0
2019-03-09T00:51:00.615Z,0
2019-03-09T00:52:00.355Z,0
2019-03-09T00:53:00.388Z,0
2019-03-09T00:54:00.392Z,0
2019-03-09T00:55:01.237Z,0
2019-03-09T00:56:00.455Z,0
2019-03-09T00:57:00.441Z,0
2019-03-09T00:58:00.463Z,0
2019-03-09T00:59:00.746Z,0
2019-03-09T01:00:00.499Z,0
2019-03-09T01:01:00.525Z,0
2019-03-09T01:02:01.059Z,0
2019-03-09T01:03:00.825Z,0
2019-03-09T01:04:00.592Z,0
2019-03-09T01:05:00.857Z,0
2019-03-09T01:06:00.879Z,0
2019-03-09T01:07:00.630Z,0
2019-03-09T01:08:00.655Z,0
2019-03-09T01:09:00.671Z,0
2019-03-09T01:10:00.953Z,0
2019-03-09T01:11:00.713Z,0
2019-03-09T01:12:01.016Z,0
2019-03-09T01:13:01.276Z,0
2019-03-09T01:14:00.768Z,0
2019-03-09T01:15:01.049Z,0
2019-03-09T01:16:00.808Z,0
2019-03-09T01:17:00.827Z,0
2019-03-09T01:18:01.118Z,0
2019-03-09T01:19:00.870Z,0
2019-03-09T01:20:00.888Z,0
2019-03-09T01:21:00.910Z,0
2019-03-09T01:22:00.925Z,0
2019-03-09T01:23:00.946Z,0
2019-03-09T01:24:00.964Z,0
2019-03-09T01:25:00.984Z,0
2019-03-09T01:26:01.269Z,0
2019-03-09T01:27:01.023Z,0
2019-03-09T01:28:00.777Z,0
2019-03-09T01:29:01.325Z,0
2019-03-09T01:30:01.136Z,0
2019-03-09T01:31:01.645Z,0
2019-03-09T01:32:01.391Z,0
2019-03-09T01:33:01.668Z,0
2019-03-09T01:34:01.178Z,0
2019-03-09T01:35:01.701Z,0
2019-03-09T01:36:00.940Z,0
2019-03-09T01:37:00.949Z,0
2019-03-09T01:38:00.970Z,0
2019-03-09T01:39:01.250Z,0
2019-03-09T01:40:01.536Z,0
2019-03-09T01:41:01.549Z,0
2019-03-09T01:42:01.578Z,0
2019-03-09T01:43:01.413Z,0
2019-03-09T01:44:01.355Z,0
2019-03-09T01:45:01.102Z,0
2019-03-09T01:46:01.648Z,0
2019-03-09T01:47:01.666Z,0
2019-03-09T01:48:01.697Z,0
2019-03-09T01:49:01.448Z,0
2019-03-09T01:50:01.479Z,0
2019-03-09T01:51:01.746Z,0
2019-03-09T01:52:01.764Z,0
2019-03-09T01:53:01.787Z,0
2019-03-09T01:54:01.547Z,0
2019-03-09T01:55:01.819Z,0
2019-03-09T01:56:01.860Z,0
2019-03-09T01:57:01.866Z,0
2019-03-09T01:58:01.911Z,0
2019-03-09T01:59:01.669Z,0
2019-03-09T02:00:01.669Z,0
2019-03-09T02:01:01.411Z,0
2019-03-09T02:02:02.226Z,0
2019-03-09T02:03:01.452Z,0
2019-03-09T02:04:02.003Z,0
2019-03-09T02:05:02.026Z,0
2019-03-09T02:06:01.507Z,0
2019-03-09T02:07:01.537Z,0
2019-03-09T02:08:01.809Z,0
2019-03-09T02:09:02.089Z,0
2019-03-09T02:10:02.163Z,0
2019-03-09T02:11:02.394Z,0
2019-03-09T02:12:02.144Z,0
2019-03-09T02:13:02.188Z,0
2019-03-09T02:14:01.666Z,0
2019-03-09T02:15:02.215Z,0
2019-03-09T02:16:01.699Z,0
2019-03-09T02:17:02.249Z,0
2019-03-09T02:18:02.266Z,0
2019-03-09T02:19:02.015Z,0
2019-03-09T02:20:02.036Z,0
2019-03-09T02:21:02.325Z,0
2019-03-09T02:22:02.080Z,0
2019-03-09T02:23:02.390Z,0
2019-03-09T02:24:02.376Z,0
2019-03-09T02:25:02.828Z,0
2019-03-09T02:26:02.676Z,0
2019-03-09T02:27:02.710Z,0
2019-03-09T02:28:02.197Z,0
2019-03-09T02:29:03.677Z,0
2019-03-09T02:30:02.584Z,0
2019-03-09T02:31:02.565Z,0
2019-03-09T02:32:02.029Z,0
2019-03-09T02:33:02.047Z,0
2019-03-09T02:34:02.337Z,0
2019-03-09T02:35:02.824Z,0
2019-03-09T02:36:02.092Z,0
2019-03-09T02:37:02.384Z,0
2019-03-09T02:38:02.685Z,0
2019-03-09T02:39:02.419Z,0
2019-03-09T02:40:02.730Z,0
2019-03-09T02:41:02.715Z,0
2019-03-09T02:42:02.493Z,0
2019-03-09T02:43:02.497Z,0
2019-03-09T02:44:02.519Z,0
2019-03-09T02:45:02.726Z,0
2019-03-09T02:46:02.286Z,0
2019-03-09T02:47:03.152Z,0
2019-03-09T02:48:02.881Z,0
2019-03-09T02:49:02.893Z,0
2019-03-09T02:50:03.250Z,0
2019-03-09T02:51:02.919Z,0
2019-03-09T02:52:02.663Z,0
2019-03-09T02:53:02.417Z,0
2019-03-09T02:54:03.000Z,0
2019-03-09T02:55:03.019Z,0
2019-03-09T02:56:03.020Z,0
2019-03-09T02:57:03.022Z,0
2019-03-09T02:58:03.051Z,0
2019-03-09T02:59:03.056Z,0
2019-03-09T03:00:04.077Z,0
2019-03-09T03:01:03.353Z,0
2019-03-09T03:02:03.126Z,0
2019-03-09T03:03:03.134Z,0
2019-03-09T03:04:02.909Z,0
2019-03-09T03:05:02.932Z,0
2019-03-09T03:06:03.187Z,0
2019-03-09T03:07:02.983Z,0
2019-03-09T03:08:03.498Z,0
2019-03-09T03:09:03.009Z,0
2019-03-09T03:10:03.018Z,0
2019-03-09T03:11:03.039Z,0
2019-03-09T03:12:03.604Z,0
2019-03-09T03:13:03.345Z,0
2019-03-09T03:14:03.385Z,0
2019-03-09T03:15:03.125Z,0
2019-03-09T03:16:03.393Z,0
2019-03-09T03:17:03.672Z,0
2019-03-09T03:18:03.442Z,0
2019-03-09T03:19:03.182Z,0
2019-03-09T03:20:03.203Z,0
2019-03-09T03:21:02.973Z,0
2019-03-09T03:22:03.239Z,0
2019-03-09T03:23:03.520Z,0
2019-03-09T03:24:03.547Z,0
2019-03-09T03:25:03.557Z,0
2019-03-09T03:26:03.565Z,0
2019-03-09T03:27:03.859Z,0
2019-03-09T03:28:03.352Z,0
2019-03-09T03:29:03.657Z,0
2019-03-09T03:30:03.658Z,0
2019-03-09T03:31:03.796Z,0
2019-03-09T03:32:03.251Z,0
2019-03-09T03:33:03.841Z,0
2019-03-09T03:34:03.785Z,0
2019-03-09T03:35:03.243Z,0
2019-03-09T03:36:03.787Z,0
2019-03-09T03:37:03.789Z,0
2019-03-09T03:38:04.071Z,0
2019-03-09T03:39:03.322Z,0
2019-03-09T03:40:03.851Z,0
2019-03-09T03:41:03.338Z,0
2019-03-09T03:42:03.651Z,0
2019-03-09T03:43:03.904Z,0
2019-03-09T03:44:03.666Z,0
2019-03-09T03:45:03.707Z,0
2019-03-09T03:46:03.962Z,0
2019-03-09T03:47:04.271Z,0
2019-03-09T03:48:04.020Z,0
2019-03-09T03:49:06.089Z,0
2019-03-09T03:50:04.097Z,0
2019-03-09T03:51:03.797Z,0
2019-03-09T03:52:04.100Z,0
2019-03-09T03:53:03.839Z,0
2019-03-09T03:54:03.945Z,0
2019-03-09T03:55:03.870Z,0
2019-03-09T03:56:03.885Z,0
2019-03-09T03:57:04.178Z,0
2019-03-09T03:58:03.920Z,0
2019-03-09T03:59:03.936Z,0
2019-03-09T04:00:04.504Z,0
2019-03-09T04:01:04.250Z,0
2019-03-09T04:02:03.998Z,0
2019-03-09T04:03:04.552Z,0
2019-03-09T04:04:03.785Z,0
2019-03-09T04:05:04.057Z,0
2019-03-09T04:06:04.335Z,0
2019-03-09T04:07:04.473Z,0
2019-03-09T04:08:04.399Z,0
2019-03-09T04:09:04.143Z,0
2019-03-09T04:10:04.157Z,0
2019-03-09T04:11:06.003Z,0
2019-03-09T04:12:04.447Z,0
2019-03-09T04:13:04.201Z,0
2019-03-09T04:14:04.285Z,0
2019-03-09T04:15:04.512Z,0
2019-03-09T04:16:04.645Z,0
2019-03-09T04:17:04.553Z,0
2019-03-09T04:18:04.305Z,0
2019-03-09T04:19:04.841Z,0
2019-03-09T04:20:04.376Z,0
2019-03-09T04:21:06.373Z,0
2019-03-09T04:22:04.383Z,0
2019-03-09T04:23:04.435Z,0
2019-03-09T04:24:04.157Z,0
2019-03-09T04:25:04.750Z,0
2019-03-09T04:26:04.710Z,0
2019-03-09T04:27:04.240Z,0
2019-03-09T04:28:05.014Z,0
2019-03-09T04:29:05.042Z,0
2019-03-09T04:30:04.646Z,0
2019-03-09T04:31:05.085Z,0
2019-03-09T04:32:04.899Z,0
2019-03-09T04:33:04.842Z,0
2019-03-09T04:34:04.862Z,0
2019-03-09T04:35:04.886Z,0
2019-03-09T04:36:04.677Z,0
2019-03-09T04:37:05.194Z,0
2019-03-09T04:38:04.951Z,0
2019-03-09T04:39:04.952Z,0
2019-03-09T04:40:04.711Z,0
2019-03-09T04:41:04.737Z,0
2019-03-09T04:42:04.519Z,0
2019-03-09T04:43:04.764Z,0
2019-03-09T04:44:05.046Z,0
2019-03-09T04:45:05.140Z,0
2019-03-09T04:46:04.824Z,0
2019-03-09T04:47:04.848Z,0
2019-03-09T04:48:05.134Z,0
2019-03-09T04:49:04.887Z,0
2019-03-09T04:50:04.662Z,0
2019-03-09T04:51:04.916Z,0
2019-03-09T04:52:04.935Z,0
2019-03-09T04:53:04.955Z,0
2019-03-09T04:54:04.972Z,0
2019-03-09T04:55:05.256Z,0
2019-03-09T04:56:05.013Z,0
2019-03-09T04:57:05.033Z,0
2019-03-09T04:58:05.055Z,0
2019-03-09T04:59:05.087Z,0
2019-03-09T05:00:05.357Z,0
2019-03-09T05:01:04.847Z,0
2019-03-09T05:02:04.882Z,0
2019-03-09T05:03:05.150Z,0
2019-03-09T05:04:05.424Z,0
2019-03-09T05:05:05.494Z,0
2019-03-09T05:06:05.202Z,0
2019-03-09T05:07:04.960Z,0
2019-03-09T05:08:05.515Z,0
2019-03-09T05:09:05.298Z,0
2019-03-09T05:10:05.804Z,0
2019-03-09T05:11:05.823Z,0
2019-03-09T05:12:05.313Z,0
2019-03-09T05:13:05.068Z,0
2019-03-09T05:14:05.355Z,0
2019-03-09T05:15:05.375Z,0
2019-03-09T05:16:05.395Z,0
2019-03-09T05:17:05.418Z,0
2019-03-09T05:18:05.688Z,0
2019-03-09T05:19:05.451Z,0
2019-03-09T05:20:05.462Z,0
2019-03-09T05:21:05.755Z,0
2019-03-09T05:22:05.501Z,0
2019-03-09T05:23:05.265Z,0
2019-03-09T05:24:05.547Z,0
2019-03-09T05:25:05.832Z,0
2019-03-09T05:26:05.858Z,0
2019-03-09T05:27:05.599Z,0
2019-03-09T05:28:05.617Z,0
2019-03-09T05:29:05.639Z,0
2019-03-09T05:30:05.927Z,0
2019-03-09T05:31:05.943Z,0
2019-03-09T05:32:06.886Z,0
2019-03-09T05:33:05.971Z,0
2019-03-09T05:34:05.728Z,0
2019-03-09T05:35:05.749Z,0
2019-03-09T05:36:05.519Z,0
2019-03-09T05:37:05.535Z,4
2019-03-09T05:38:06.095Z,0
2019-03-09T05:39:06.093Z,4
2019-03-09T05:40:06.108Z,4
2019-03-09T05:41:05.867Z,4
2019-03-09T05:42:05.885Z,4
2019-03-09T05:43:05.642Z,8
2019-03-09T05:44:05.916Z,8
2019-03-09T05:45:06.464Z,8
2019-03-09T05:46:06.217Z,12
2019-03-09T05:47:05.983Z,8
2019-03-09T05:48:06.527Z,4
2019-03-09T05:49:06.015Z,4
2019-03-09T05:50:06.991Z,12
2019-03-09T05:51:06.319Z,8
2019-03-09T05:52:06.076Z,8
2019-03-09T05:53:06.405Z,8
2019-03-09T05:54:06.375Z,12
2019-03-09T05:55:06.403Z,12
2019-03-09T05:56:07.838Z,12
2019-03-09T05:57:06.432Z,20
2019-03-09T05:58:06.716Z,28
2019-03-09T05:59:06.241Z,28
2019-03-09T06:00:05.966Z,24
2019-03-09T06:01:06.257Z,20
2019-03-09T06:02:06.522Z,12
2019-03-09T06:03:06.296Z,20
2019-03-09T06:04:07.356Z,36
2019-03-09T06:05:06.319Z,56
2019-03-09T06:06:06.867Z,56
2019-03-09T06:07:06.351Z,44
2019-03-09T06:08:06.118Z,52
2019-03-09T06:09:06.676Z,56
2019-03-09T06:10:06.680Z,60
2019-03-09T06:11:06.433Z,68
2019-03-09T06:12:06.718Z,64
2019-03-09T06:13:06.206Z,80
2019-03-09T06:14:07.020Z,72
2019-03-09T06:15:06.510Z,72
2019-03-09T06:16:06.528Z,72
2019-03-09T06:17:06.809Z,72
2019-03-09T06:18:08.690Z,64
2019-03-09T06:19:06.587Z,84
2019-03-09T06:20:06.892Z,92
2019-03-09T06:21:06.624Z,100
2019-03-09T06:22:06.904Z,192
2019-03-09T06:23:07.189Z,160
2019-03-09T06:24:06.695Z,208
2019-03-09T06:25:07.244Z,260
2019-03-09T06:26:07.038Z,268
2019-03-09T06:27:06.737Z,304
2019-03-09T06:28:07.282Z,348
2019-03-09T06:29:06.773Z,452
2019-03-09T06:30:07.062Z,348
2019-03-09T06:31:06.813Z,340
2019-03-09T06:32:06.828Z,368
2019-03-09T06:33:06.851Z,332
2019-03-09T06:34:07.128Z,368
2019-03-09T06:35:07.386Z,332
2019-03-09T06:36:07.166Z,428
2019-03-09T06:37:07.203Z,400
2019-03-09T06:38:06.686Z,436
2019-03-09T06:39:07.227Z,452
2019-03-09T06:40:07.124Z,472
2019-03-09T06:41:10.043Z,496
2019-03-09T06:42:07.022Z,504
2019-03-09T06:43:07.033Z,456
2019-03-09T06:44:07.074Z,584
2019-03-09T06:45:07.127Z,560
2019-03-09T06:46:07.662Z,564
2019-03-09T06:47:07.114Z,548
2019-03-09T06:48:07.395Z,608
2019-03-09T06:49:06.882Z,540
2019-03-09T06:50:07.439Z,756
2019-03-09T06:51:06.923Z,656
2019-03-09T06:52:07.205Z,656
2019-03-09T06:53:07.689Z,764
2019-03-09T06:54:07.509Z,840
2019-03-09T06:55:07.264Z,832
2019-03-09T06:56:07.036Z,908
2019-03-09T06:57:16.220Z,964
2019-03-09T06:58:07.888Z,992
2019-03-09T06:59:07.620Z,1096
2019-03-09T07:00:07.625Z,1068
2019-03-09T07:01:07.379Z,1036
2019-03-09T07:02:07.659Z,1000
2019-03-09T07:03:07.420Z,1112
2019-03-09T07:04:07.440Z,1260
2019-03-09T07:05:07.453Z,1256
2019-03-09T07:06:07.212Z,1088
2019-03-09T07:07:07.490Z,1032
2019-03-09T07:08:07.505Z,1136
2019-03-09T07:09:07.573Z,1184
2019-03-09T07:10:07.834Z,1168
2019-03-09T07:11:07.312Z,1252
2019-03-09T07:12:07.583Z,1368
2019-03-09T07:13:07.862Z,1424
2019-03-09T07:14:07.879Z,1596
2019-03-09T07:15:07.913Z,1652
2019-03-09T07:16:07.659Z,1600
2019-03-09T07:17:07.672Z,1460
2019-03-09T07:18:07.964Z,1632
2019-03-09T07:19:07.718Z,1512
2019-03-09T07:20:17.601Z,1500
2019-03-09T07:21:07.768Z,1552
2019-03-09T07:22:07.784Z,1624
2019-03-09T07:23:08.328Z,1608
2019-03-09T07:24:07.552Z,1496
2019-03-09T07:25:07.838Z,1416
2019-03-09T07:26:07.846Z,1384
2019-03-09T07:27:07.863Z,1396
2019-03-09T07:28:08.149Z,1412
2019-03-09T07:29:08.175Z,1504
2019-03-09T07:30:08.192Z,1588
2019-03-09T07:31:08.213Z,1632
2019-03-09T07:32:07.963Z,1512
2019-03-09T07:33:08.510Z,1524
2019-03-09T07:34:07.995Z,1408
2019-03-09T07:35:08.553Z,1612
2019-03-09T07:36:08.036Z,1600
2019-03-09T07:37:08.081Z,1720
2019-03-09T07:38:08.081Z,1540
2019-03-09T07:39:08.097Z,1344
2019-03-09T07:40:08.134Z,1096
2019-03-09T07:41:08.400Z,1288
2019-03-09T07:42:07.893Z,1452
2019-03-09T07:43:08.711Z,1404
2019-03-09T07:44:08.459Z,1468
2019-03-09T07:45:08.209Z,1332
2019-03-09T07:46:08.503Z,1428
2019-03-09T07:47:08.516Z,1524
2019-03-09T07:48:08.550Z,1436
2019-03-09T07:49:08.550Z,1420
2019-03-09T07:50:08.306Z,1424
2019-03-09T07:51:08.334Z,1440
2019-03-09T07:52:08.076Z,1576
2019-03-09T07:53:08.410Z,1672
2019-03-09T07:54:08.381Z,1648
2019-03-09T07:55:08.924Z,1636
2019-03-09T07:56:08.678Z,1744
2019-03-09T07:57:08.441Z,1628
2019-03-09T07:58:08.995Z,2012
2019-03-09T07:59:08.479Z,1916
2019-03-09T08:00:08.761Z,1988
2019-03-09T08:01:08.778Z,1752
2019-03-09T08:02:08.797Z,1836
2019-03-09T08:03:08.823Z,1492
2019-03-09T08:04:08.634Z,1816
2019-03-09T08:05:08.854Z,2096
2019-03-09T08:06:09.136Z,2192
2019-03-09T08:07:09.161Z,2056
2019-03-09T08:08:08.397Z,1464
2019-03-09T08:09:09.196Z,1760
2019-03-09T08:10:08.694Z,1772
2019-03-09T08:11:08.976Z,1492
2019-03-09T08:12:08.987Z,1808
2019-03-09T08:13:08.754Z,1596
2019-03-09T08:14:08.779Z,1676
2019-03-09T08:15:09.054Z,1804
2019-03-09T08:16:08.543Z,2224
2019-03-09T08:17:09.091Z,2596
2019-03-09T08:18:08.849Z,2508
2019-03-09T08:19:09.139Z,2948
2019-03-09T08:20:08.891Z,2940
2019-03-09T08:21:09.181Z,2828
2019-03-09T08:22:09.198Z,3092
2019-03-09T08:23:09.469Z,2880
2019-03-09T08:24:08.734Z,2788
2019-03-09T08:25:09.022Z,2668
2019-03-09T08:26:09.031Z,2692
2019-03-09T08:27:09.305Z,2888
2019-03-09T08:28:09.054Z,3076
2019-03-09T08:29:09.101Z,3228
2019-03-09T08:30:09.786Z,3184
2019-03-09T08:31:09.370Z,3040
2019-03-09T08:32:09.127Z,3008
2019-03-09T08:33:09.183Z,3040
2019-03-09T08:34:09.190Z,3048
2019-03-09T08:35:09.453Z,2968
2019-03-09T08:36:09.229Z,2784
2019-03-09T08:37:09.287Z,2632
2019-03-09T08:38:09.287Z,2664
2019-03-09T08:39:09.590Z,2732
2019-03-09T08:40:09.550Z,2704
2019-03-09T08:41:09.569Z,2652
2019-03-09T08:42:09.360Z,2644
2019-03-09T08:43:09.633Z,2720
2019-03-09T08:44:09.716Z,2500
2019-03-09T08:45:09.158Z,2044
2019-03-09T08:46:09.160Z,1916
2019-03-09T08:47:09.165Z,2032
2019-03-09T08:48:09.792Z,2392
2019-03-09T08:49:09.236Z,2412
2019-03-09T08:50:09.219Z,2544
2019-03-09T08:51:09.821Z,2892
2019-03-09T08:52:09.573Z,2700
2019-03-09T08:53:09.360Z,2472
2019-03-09T08:54:09.918Z,3072
2019-03-09T08:55:09.884Z,3280
2019-03-09T08:56:09.652Z,3200
2019-03-09T08:57:09.971Z,3376
2019-03-09T08:58:10.163Z,3336
2019-03-09T08:59:09.758Z,2504
2019-03-09T09:00:10.055Z,1356
2019-03-09T09:01:09.714Z,1700
2019-03-09T09:02:09.513Z,1540
2019-03-09T09:03:09.734Z,1272
2019-03-09T09:04:09.746Z,1544
2019-03-09T09:05:10.027Z,1900
2019-03-09T09:06:09.530Z,2340
2019-03-09T09:07:09.567Z,2212
2019-03-09T09:08:11.175Z,2672
2019-03-09T09:09:10.141Z,2744
2019-03-09T09:10:09.903Z,2700
2019-03-09T09:11:09.883Z,2692
2019-03-09T09:12:09.906Z,2732
2019-03-09T09:13:10.222Z,2812
2019-03-09T09:14:10.202Z,2740
2019-03-09T09:15:09.699Z,2812
2019-03-09T09:16:10.255Z,2820
2019-03-09T09:17:10.273Z,2964
2019-03-09T09:18:10.303Z,2976
2019-03-09T09:19:10.043Z,2872
2019-03-09T09:20:10.061Z,2696
2019-03-09T09:21:09.837Z,2592
2019-03-09T09:22:11.548Z,2552
2019-03-09T09:23:10.119Z,2476
2019-03-09T09:24:10.410Z,2484
2019-03-09T09:25:10.436Z,2472
2019-03-09T09:26:10.183Z,2616
2019-03-09T09:27:10.203Z,2720
2019-03-09T09:28:10.479Z,2796
2019-03-09T09:29:10.238Z,2920
2019-03-09T09:30:10.517Z,2940
2019-03-09T09:31:10.327Z,2844
2019-03-09T09:32:10.825Z,2788
2019-03-09T09:33:10.315Z,2756
2019-03-09T09:34:10.340Z,2712
2019-03-09T09:35:10.381Z,2904
2019-03-09T09:36:10.647Z,3064
2019-03-09T09:37:10.404Z,3056
2019-03-09T09:38:10.688Z,2840
2019-03-09T09:39:10.693Z,2836
2019-03-09T09:40:10.801Z,3164
2019-03-09T09:41:10.736Z,3496
2019-03-09T09:42:10.753Z,3428
2019-03-09T09:43:10.534Z,3196
2019-03-09T09:44:10.793Z,3128
2019-03-09T09:45:10.298Z,2836
2019-03-09T09:46:10.836Z,2756
2019-03-09T09:47:10.590Z,2876
2019-03-09T09:48:10.613Z,3568
2019-03-09T09:49:11.155Z,2880
2019-03-09T09:50:10.397Z,2572
2019-03-09T09:51:10.929Z,2436
2019-03-09T09:52:10.686Z,2268
2019-03-09T09:53:10.452Z,2012
2019-03-09T09:54:11.254Z,2148
2019-03-09T09:55:10.751Z,2092
2019-03-09T09:56:10.778Z,3100
2019-03-09T09:57:11.053Z,2548
2019-03-09T09:58:10.813Z,2180
2019-03-09T09:59:10.834Z,3176
2019-03-09T10:00:10.853Z,3464
2019-03-09T10:01:11.134Z,3920
2019-03-09T10:02:11.153Z,3840
2019-03-09T10:03:11.175Z,3780
2019-03-09T10:04:12.407Z,3992
2019-03-09T10:05:11.233Z,4096
2019-03-09T10:06:13.331Z,4040
2019-03-09T10:07:11.253Z,4092
2019-03-09T10:08:10.743Z,4360
2019-03-09T10:09:11.285Z,4104
2019-03-09T10:10:11.048Z,3708
2019-03-09T10:11:11.329Z,3840
2019-03-09T10:12:11.085Z,4124
2019-03-09T10:13:11.112Z,3952
2019-03-09T10:14:11.126Z,3992
2019-03-09T10:15:11.144Z,4072
2019-03-09T10:16:10.909Z,3804
2019-03-09T10:17:11.709Z,3596
2019-03-09T10:18:11.203Z,3864
2019-03-09T10:19:13.351Z,3992
2019-03-09T10:20:11.773Z,4124
2019-03-09T10:21:11.566Z,4164
2019-03-09T10:22:11.283Z,4220
2019-03-09T10:23:11.900Z,4164
2019-03-09T10:24:11.585Z,4116
2019-03-09T10:25:11.087Z,4088
2019-03-09T10:26:11.422Z,3928
2019-03-09T10:27:11.392Z,3788
2019-03-09T10:28:11.935Z,3772
2019-03-09T10:29:11.423Z,3680
2019-03-09T10:30:11.728Z,3612
2019-03-09T10:31:11.474Z,3540
2019-03-09T10:32:12.011Z,3524
2019-03-09T10:33:11.264Z,3548
2019-03-09T10:34:11.526Z,3484
2019-03-09T10:35:11.804Z,3472
2019-03-09T10:36:11.303Z,3476
2019-03-09T10:37:11.580Z,3404
2019-03-09T10:38:11.864Z,3360
2019-03-09T10:39:11.654Z,3464
2019-03-09T10:40:11.907Z,3500
2019-03-09T10:41:11.660Z,3484
2019-03-09T10:42:11.689Z,3332
2019-03-09T10:43:11.701Z,3100
2019-03-09T10:44:11.771Z,2840
2019-03-09T10:45:11.746Z,2792
2019-03-09T10:46:11.771Z,2936
2019-03-09T10:47:11.524Z,3128
2019-03-09T10:48:11.816Z,3216
2019-03-09T10:49:12.110Z,3308
2019-03-09T10:50:11.851Z,3368
2019-03-09T10:51:12.134Z,3364
2019-03-09T10:52:11.885Z,3436
2019-03-09T10:53:12.163Z,3444
2019-03-09T10:54:11.926Z,3408
2019-03-09T10:55:11.953Z,3416
2019-03-09T10:56:11.963Z,3388
2019-03-09T10:57:11.985Z,3320
2019-03-09T10:58:11.748Z,3276
2019-03-09T10:59:12.020Z,3304
2019-03-09T11:00:12.583Z,3440
2019-03-09T11:01:12.325Z,3688
2019-03-09T11:02:12.081Z,3880
2019-03-09T11:03:12.372Z,3884
2019-03-09T11:04:12.384Z,3636
2019-03-09T11:05:11.911Z,3460
2019-03-09T11:06:12.473Z,3452
2019-03-09T11:07:12.182Z,3628
2019-03-09T11:08:11.943Z,3616
2019-03-09T11:09:12.226Z,3556
2019-03-09T11:10:12.507Z,3668
2019-03-09T11:11:12.534Z,3640
2019-03-09T11:12:12.286Z,3696
2019-03-09T11:13:12.301Z,3836
2019-03-09T11:14:12.062Z,4060
2019-03-09T11:15:12.603Z,4308
2019-03-09T11:16:12.363Z,4172
2019-03-09T11:17:12.379Z,4040
2019-03-09T11:18:12.411Z,4248
2019-03-09T11:19:12.160Z,4512
2019-03-09T11:20:12.439Z,4424
2019-03-09T11:21:12.464Z,4456
2019-03-09T11:22:12.480Z,4684
2019-03-09T11:23:12.766Z,4456
2019-03-09T11:24:12.523Z,4332
2019-03-09T11:25:12.279Z,4096
2019-03-09T11:26:12.565Z,4188
2019-03-09T11:27:12.851Z,4328
2019-03-09T11:28:12.599Z,4468
2019-03-09T11:29:13.150Z,4604
2019-03-09T11:30:12.649Z,4556
2019-03-09T11:31:12.662Z,4544
2019-03-09T11:32:12.939Z,4504
2019-03-09T11:33:12.984Z,4664
2019-03-09T11:34:12.459Z,4740
2019-03-09T11:35:13.008Z,4604
2019-03-09T11:36:12.514Z,4560
2019-03-09T11:37:12.522Z,4460
2019-03-09T11:38:12.819Z,4256
2019-03-09T11:39:12.890Z,4140
2019-03-09T11:40:12.584Z,4060
2019-03-09T11:41:23.389Z,3940
2019-03-09T11:42:12.658Z,3836
2019-03-09T11:43:12.913Z,3668
2019-03-09T11:44:12.663Z,3788
2019-03-09T11:45:12.684Z,3888
2019-03-09T11:46:12.967Z,3844
2019-03-09T11:47:13.273Z,3920
2019-03-09T11:48:13.005Z,3836
2019-03-09T11:49:12.761Z,3988
2019-03-09T11:50:13.045Z,4140
2019-03-09T11:51:12.801Z,4068
2019-03-09T11:52:23.878Z,4004
2019-03-09T11:53:13.377Z,3964
2019-03-09T11:54:12.864Z,3896
2019-03-09T11:55:12.881Z,3732
2019-03-09T11:56:13.166Z,3684
2019-03-09T11:57:13.448Z,3544
2019-03-09T11:58:13.207Z,3556
2019-03-09T11:59:13.227Z,3768
2019-03-09T12:00:12.988Z,3572
2019-03-09T12:01:13.279Z,3568
2019-03-09T12:02:13.297Z,3796
2019-03-09T12:03:13.051Z,4076
2019-03-09T12:04:13.595Z,4092
2019-03-09T12:05:13.889Z,3992
2019-03-09T12:06:13.643Z,3856
2019-03-09T12:07:13.387Z,3808
2019-03-09T12:08:13.405Z,3808
2019-03-09T12:09:13.429Z,3624
2019-03-09T12:10:13.191Z,3468
2019-03-09T12:11:13.735Z,3352
2019-03-09T12:12:13.509Z,3396
2019-03-09T12:13:13.800Z,3532
2019-03-09T12:14:13.795Z,3808
2019-03-09T12:15:13.548Z,4208
2019-03-09T12:16:13.832Z,4500
2019-03-09T12:17:19.288Z,4520
2019-03-09T12:18:13.438Z,4320
2019-03-09T12:19:13.894Z,4316
2019-03-09T12:20:14.178Z,4348
2019-03-09T12:21:14.197Z,4432
2019-03-09T12:22:13.692Z,4240
2019-03-09T12:23:13.452Z,4336
2019-03-09T12:24:24.345Z,4540
2019-03-09T12:25:13.774Z,4592
2019-03-09T12:26:13.778Z,4624
2019-03-09T12:27:13.803Z,4416
2019-03-09T12:28:13.820Z,4016
2019-03-09T12:29:14.111Z,3752
2019-03-09T12:30:14.173Z,3324
2019-03-09T12:31:13.888Z,3244
2019-03-09T12:32:13.896Z,3248
2019-03-09T12:33:13.918Z,3488
2019-03-09T12:34:13.678Z,3364
2019-03-09T12:35:13.958Z,3056
2019-03-09T12:36:14.244Z,2788
2019-03-09T12:37:14.264Z,2904
2019-03-09T12:38:14.298Z,3128
2019-03-09T12:39:14.046Z,3384
2019-03-09T12:40:14.075Z,3232
2019-03-09T12:41:13.822Z,2988
2019-03-09T12:42:14.381Z,3004
2019-03-09T12:43:14.144Z,3068
2019-03-09T12:44:14.407Z,3236
2019-03-09T12:45:13.907Z,3464
2019-03-09T12:46:14.177Z,3784
2019-03-09T12:47:14.211Z,4220
2019-03-09T12:48:14.225Z,4728
2019-03-09T12:49:14.242Z,5012
2019-03-09T12:50:14.524Z,5096
2019-03-09T12:51:14.288Z,4672
2019-03-09T12:52:14.568Z,4788
2019-03-09T12:53:16.415Z,4956
2019-03-09T12:54:14.608Z,4296
2019-03-09T12:55:14.106Z,4140
2019-03-09T12:56:14.122Z,4060
2019-03-09T12:57:14.407Z,4100
2019-03-09T12:58:14.686Z,4112
2019-03-09T12:59:14.194Z,3836
2019-03-09T13:00:15.029Z,3024
2019-03-09T13:01:14.758Z,2648
2019-03-09T13:02:14.507Z,3032
2019-03-09T13:03:15.063Z,4068
2019-03-09T13:04:14.817Z,4248
2019-03-09T13:05:14.569Z,4580
2019-03-09T13:06:14.852Z,4844
2019-03-09T13:07:14.617Z,4960
2019-03-09T13:08:14.632Z,5148
2019-03-09T13:09:14.914Z,5828
2019-03-09T13:10:14.676Z,5204
2019-03-09T13:11:14.973Z,4000
2019-03-09T13:12:15.665Z,3912
2019-03-09T13:13:14.739Z,3884
2019-03-09T13:14:14.499Z,4272
2019-03-09T13:15:15.337Z,4128
2019-03-09T13:16:15.055Z,4164
2019-03-09T13:17:15.342Z,3576
2019-03-09T13:18:14.844Z,2712
2019-03-09T13:19:14.860Z,2936
2019-03-09T13:20:15.142Z,3016
2019-03-09T13:21:14.898Z,3892
2019-03-09T13:22:14.695Z,4552
2019-03-09T13:23:15.210Z,3288
2019-03-09T13:24:14.960Z,2396
2019-03-09T13:25:14.979Z,2820
2019-03-09T13:26:15.268Z,2364
2019-03-09T13:27:14.760Z,2332
2019-03-09T13:28:15.590Z,3112
2019-03-09T13:29:15.062Z,2708
2019-03-09T13:30:15.083Z,2544
2019-03-09T13:31:15.368Z,2556
2019-03-09T13:32:15.122Z,3164
2019-03-09T13:33:15.175Z,4052
2019-03-09T13:34:15.172Z,4000
2019-03-09T13:35:15.186Z,4612
2019-03-09T13:36:15.466Z,4428
2019-03-09T13:37:15.225Z,3908
2019-03-09T13:38:15.254Z,3032
2019-03-09T13:39:15.270Z,2244
2019-03-09T13:40:15.289Z,1928
2019-03-09T13:41:15.054Z,1544
2019-03-09T13:42:15.593Z,1144
2019-03-09T13:43:15.347Z,980
2019-03-09T13:44:15.636Z,788
2019-03-09T13:45:15.134Z,788
2019-03-09T13:46:15.676Z,920
2019-03-09T13:47:15.704Z,1452
2019-03-09T13:48:15.458Z,1784
2019-03-09T13:49:15.737Z,2124
2019-03-09T13:50:15.844Z,3092
2019-03-09T13:51:16.040Z,4292
2019-03-09T13:52:15.279Z,4216
2019-03-09T13:53:15.562Z,3300
2019-03-09T13:54:15.577Z,3732
2019-03-09T13:55:15.603Z,5196
2019-03-09T13:56:15.621Z,5116
2019-03-09T13:57:15.376Z,3540